Time;durP1;ratioP1;P1;durP2;ratioP2;P2;SDS_P1;SDS_P2;PMS_P1;PMS_P2;Temp;Humidity;BMP_temperature;BMP_pressure;BME280_temperature;BME280_humidity;BME280_pressure;Samples;Min_cycle;Max_cycle;Signal;HPM_P1;HPM_P2
2023/12/09 00:01:08;;;;;;;107.10;29.10;;;7.10;99.90;;;;;;5042325;28;20041;-77
2023/12/09 00:03:34;;;;;;;115.35;29.88;;;7.10;99.90;;;;;;5077862;28;20060;-76
2023/12/09 00:05:59;;;;;;;108.38;29.35;;;7.10;99.90;;;;;;5041028;28;20496;-77
2023/12/09 00:08:25;;;;;;;132.55;29.60;;;6.80;99.90;;;;;;5050587;28;20037;-77
2023/12/09 00:10:50;;;;;;;96.57;27.63;;;7.00;99.90;;;;;;5048757;28;20052;-76
2023/12/09 00:13:17;;;;;;;115.20;30.73;;;7.00;99.90;;;;;;5046551;28;20048;-76
2023/12/09 00:15:42;;;;;;;100.57;28.52;;;7.00;99.90;;;;;;5048848;28;20048;-77
2023/12/09 00:18:08;;;;;;;123.25;30.38;;;7.10;99.90;;;;;;5048281;28;20037;-76
2023/12/09 00:20:34;;;;;;;107.95;30.63;;;7.40;99.90;;;;;;5050360;28;20037;-76
2023/12/09 00:22:59;;;;;;;116.45;30.95;;;7.10;99.90;;;;;;5045873;28;20045;-77
2023/12/09 00:25:25;;;;;;;115.15;28.30;;;7.10;99.90;;;;;;5046552;28;20033;-77
2023/12/09 00:27:51;;;;;;;98.78;29.88;;;7.10;99.90;;;;;;5038446;28;20064;-77
2023/12/09 00:30:16;;;;;;;101.60;29.15;;;7.10;99.90;;;;;;5049817;28;20416;-76
2023/12/09 00:32:42;;;;;;;110.22;29.27;;;7.40;99.90;;;;;;5050810;28;20534;-76
2023/12/09 00:35:08;;;;;;;105.45;28.75;;;7.20;99.90;;;;;;5073029;28;20043;-77
2023/12/09 00:37:34;;;;;;;86.05;27.35;;;7.10;99.90;;;;;;5044700;28;20450;-77
2023/12/09 00:39:59;;;;;;;101.30;27.60;;;7.10;99.90;;;;;;5048023;28;20037;-76
2023/12/09 00:42:25;;;;;;;103.43;27.60;;;7.20;99.90;;;;;;5049937;28;20041;-77
2023/12/09 00:44:51;;;;;;;96.80;30.02;;;7.10;99.90;;;;;;5047032;28;20404;-77
2023/12/09 00:47:16;;;;;;;95.40;27.25;;;7.10;99.90;;;;;;5047918;28;20484;-76
2023/12/09 00:49:42;;;;;;;97.50;27.45;;;7.10;99.90;;;;;;5046278;28;20044;-77
2023/12/09 00:52:08;;;;;;;89.20;26.92;;;7.10;99.90;;;;;;5027785;28;20063;-78
2023/12/09 00:54:33;;;;;;;105.50;28.05;;;7.40;99.90;;;;;;5044967;28;20037;-76
2023/12/09 00:56:59;;;;;;;97.85;25.83;;;7.10;99.90;;;;;;5047526;28;20033;-76
2023/12/09 00:59:24;;;;;;;87.07;26.08;;;7.20;99.90;;;;;;5046102;28;20048;-78
2023/12/09 01:01:50;;;;;;;84.05;27.55;;;7.10;99.90;;;;;;5031925;28;20079;-77
2023/12/09 01:04:16;;;;;;;95.03;26.85;;;7.10;99.90;;;;;;5041060;28;20088;-76
2023/12/09 01:06:41;;;;;;;98.10;26.95;;;7.40;99.90;;;;;;5047862;28;20044;-76
2023/12/09 01:09:07;;;;;;;79.15;26.55;;;7.20;99.90;;;;;;5041575;28;20123;-75
2023/12/09 01:11:32;;;;;;;95.10;28.17;;;7.30;99.90;;;;;;5049461;28;20409;-76
2023/12/09 01:13:58;;;;;;;112.03;30.13;;;7.20;99.90;;;;;;5044488;28;20124;-76
2023/12/09 01:16:23;;;;;;;95.50;27.63;;;7.20;99.90;;;;;;5054105;28;20428;-76
2023/12/09 01:18:49;;;;;;;99.65;28.05;;;7.20;99.90;;;;;;5048649;28;20033;-76
2023/12/09 01:21:15;;;;;;;86.28;26.15;;;7.20;99.90;;;;;;5052534;28;20083;-76
2023/12/09 01:23:40;;;;;;;84.85;26.45;;;7.20;99.90;;;;;;5048934;28;20107;-77
2023/12/09 01:26:07;;;;;;;88.50;27.70;;;7.20;99.90;;;;;;5035868;28;20044;-77
2023/12/09 01:28:33;;;;;;;98.85;27.85;;;7.30;99.90;;;;;;5049834;28;20535;-76
2023/12/09 01:30:59;;;;;;;79.93;26.73;;;7.30;99.90;;;;;;5051025;28;20033;-77
2023/12/09 01:33:25;;;;;;;81.35;26.77;;;7.60;99.90;;;;;;5047890;28;20041;-76
2023/12/09 01:35:50;;;;;;;89.97;26.52;;;7.30;99.90;;;;;;5046723;28;20037;-76
2023/12/09 01:38:16;;;;;;;84.75;26.15;;;7.30;99.90;;;;;;5025884;28;20496;-77
2023/12/09 01:40:42;;;;;;;94.95;25.77;;;7.30;99.90;;;;;;5048868;28;20032;-76
2023/12/09 01:43:09;;;;;;;68.60;22.88;;;7.30;99.90;;;;;;5049235;28;20496;-77
2023/12/09 01:45:35;;;;;;;84.75;26.60;;;7.80;99.90;;;;;;5045591;28;20072;-76
2023/12/09 01:48:01;;;;;;;87.45;27.23;;;7.30;99.90;;;;;;5047092;28;20052;-77
2023/12/09 01:50:30;;;;;;;82.55;24.20;;;7.40;99.90;;;;;;5050265;28;20388;-77
2023/12/09 01:52:56;;;;;;;78.22;25.15;;;7.60;99.90;;;;;;5063970;28;20041;-76
2023/12/09 01:55:22;;;;;;;79.93;24.92;;;7.40;99.90;;;;;;5084084;28;20063;-77
2023/12/09 01:57:48;;;;;;;72.78;23.77;;;7.40;99.90;;;;;;5047298;28;20029;-76
2023/12/09 02:00:14;;;;;;;78.88;24.73;;;7.50;99.90;;;;;;5049420;28;20086;-75
2023/12/09 02:02:40;;;;;;;72.97;25.02;;;7.30;99.90;;;;;;5065803;28;20029;-76
2023/12/09 02:05:06;;;;;;;68.20;22.95;;;7.40;99.90;;;;;;5051729;28;20045;-77
2023/12/09 02:07:33;;;;;;;62.17;23.35;;;7.40;99.90;;;;;;5048677;28;20091;-76
2023/12/09 02:09:59;;;;;;;70.88;22.33;;;7.70;99.90;;;;;;5051455;28;20052;-76
2023/12/09 02:13:12;;;;;;;65.65;23.77;;;7.40;99.90;;;;;;5048456;28;20404;-77
2023/12/09 02:15:55;;;;;;;68.80;22.67;;;7.40;99.90;;;;;;5082831;28;20044;-75
2023/12/09 02:18:22;;;;;;;62.88;23.85;;;7.40;99.90;;;;;;5084042;28;20116;-76
2023/12/09 02:20:47;;;;;;;66.55;22.83;;;7.80;99.90;;;;;;5050009;28;20062;-77
2023/12/09 02:23:13;;;;;;;65.22;23.85;;;7.40;99.90;;;;;;5045264;28;20037;-77
2023/12/09 02:25:40;;;;;;;73.18;23.80;;;7.40;99.90;;;;;;5033248;28;20447;-77
2023/12/09 02:28:31;;;;;;;64.32;23.17;;;7.70;99.90;;;;;;5051441;28;20045;-77
2023/12/09 02:31:13;;;;;;;64.35;24.08;;;7.40;99.90;;;;;;5051402;28;20037;-75
2023/12/09 02:33:43;;;;;;;67.03;24.33;;;7.40;99.90;;;;;;5047775;28;20108;-76
2023/12/09 02:36:10;;;;;;;66.63;22.70;;;7.40;99.90;;;;;;5049007;28;20501;-76
2023/12/09 02:38:37;;;;;;;65.82;23.90;;;7.40;99.90;;;;;;5049742;28;20111;-77
2023/12/09 02:41:06;;;;;;;59.85;22.77;;;7.40;99.90;;;;;;5048893;28;20083;-76
2023/12/09 02:43:32;;;;;;;60.80;22.02;;;7.30;99.90;;;;;;5047652;28;20098;-76
2023/12/09 02:45:58;;;;;;;59.08;22.27;;;7.50;99.90;;;;;;5047478;28;20045;-77
2023/12/09 02:48:23;;;;;;;62.60;23.55;;;7.60;99.90;;;;;;5043811;28;20033;-76
2023/12/09 02:50:49;;;;;;;53.70;21.45;;;7.40;99.90;;;;;;5047710;28;20087;-76
2023/12/09 02:53:15;;;;;;;54.67;22.45;;;7.70;99.90;;;;;;5050467;28;20420;-77
2023/12/09 02:55:41;;;;;;;58.03;21.67;;;7.70;99.90;;;;;;5051059;28;20041;-76
2023/12/09 02:58:06;;;;;;;70.13;22.33;;;7.40;99.90;;;;;;5049320;28;20086;-77
2023/12/09 03:00:32;;;;;;;63.47;21.25;;;7.40;99.90;;;;;;5049556;28;20052;-77
2023/12/09 03:02:57;;;;;;;54.97;21.60;;;7.40;99.90;;;;;;5041606;28;20097;-76
2023/12/09 03:05:23;;;;;;;53.85;21.10;;;7.40;99.90;;;;;;5044808;28;20107;-76
2023/12/09 03:07:49;;;;;;;58.70;21.52;;;7.40;99.90;;;;;;5030663;28;20135;-77
2023/12/09 03:10:14;;;;;;;56.60;22.02;;;7.40;99.90;;;;;;5046831;28;20049;-77
2023/12/09 03:12:40;;;;;;;72.20;23.08;;;7.40;99.90;;;;;;5047409;28;20044;-76
2023/12/09 03:15:06;;;;;;;48.90;19.88;;;7.40;99.90;;;;;;5044035;28;20420;-76
2023/12/09 03:17:33;;;;;;;60.00;20.48;;;7.40;99.90;;;;;;5047188;28;20033;-77
2023/12/09 03:19:59;;;;;;;64.53;21.00;;;7.40;99.90;;;;;;5049080;28;20116;-76
2023/12/09 03:22:24;;;;;;;54.20;19.77;;;7.40;99.90;;;;;;5033325;28;20068;-77
2023/12/09 03:24:50;;;;;;;52.17;19.60;;;7.40;99.90;;;;;;5049433;28;20041;-77
2023/12/09 03:27:15;;;;;;;54.42;18.52;;;7.40;99.90;;;;;;5024727;28;20029;-76
2023/12/09 03:29:41;;;;;;;47.92;19.83;;;7.50;99.90;;;;;;5049425;28;20191;-77
2023/12/09 03:32:07;;;;;;;57.67;19.48;;;7.40;99.90;;;;;;5027361;28;20034;-77
2023/12/09 03:34:32;;;;;;;52.83;19.00;;;7.40;99.90;;;;;;5049919;28;20068;-76
2023/12/09 03:36:58;;;;;;;43.58;17.60;;;7.40;99.90;;;;;;5047502;28;20037;-76
2023/12/09 03:39:24;;;;;;;45.95;18.98;;;7.40;99.90;;;;;;5049529;28;20041;-76
2023/12/09 03:41:49;;;;;;;43.75;17.35;;;7.30;99.90;;;;;;5042037;28;20094;-77
2023/12/09 03:44:15;;;;;;;52.70;20.25;;;7.30;99.90;;;;;;5049587;28;20079;-77
2023/12/09 03:46:40;;;;;;;54.28;19.70;;;7.30;99.90;;;;;;5049998;28;20029;-77
2023/12/09 03:49:06;;;;;;;45.67;17.80;;;7.60;99.90;;;;;;5049117;28;20051;-76
2023/12/09 03:51:32;;;;;;;50.42;17.92;;;7.60;99.90;;;;;;5045878;28;20098;-76
2023/12/09 03:53:57;;;;;;;46.65;19.33;;;7.30;99.90;;;;;;5046963;28;20381;-78
2023/12/09 03:56:23;;;;;;;40.58;18.42;;;7.30;99.90;;;;;;5044990;28;20519;-77
2023/12/09 03:58:50;;;;;;;41.47;16.67;;;7.50;99.90;;;;;;5032015;28;20377;-77
2023/12/09 04:01:16;;;;;;;36.63;17.95;;;7.30;99.90;;;;;;5049979;28;20044;-77
2023/12/09 04:03:41;;;;;;;44.67;17.80;;;7.30;99.90;;;;;;5047514;28;20039;-78
2023/12/09 04:06:07;;;;;;;42.20;17.88;;;7.70;99.90;;;;;;5030876;28;20052;-77
2023/12/09 04:08:33;;;;;;;51.22;18.13;;;7.30;99.90;;;;;;5052273;28;20039;-76
2023/12/09 04:10:58;;;;;;;50.03;19.58;;;7.40;99.90;;;;;;5035147;28;20042;-78
2023/12/09 04:13:24;;;;;;;52.53;19.15;;;7.60;99.90;;;;;;5052642;28;20415;-77
2023/12/09 04:15:50;;;;;;;44.97;18.00;;;7.30;99.90;;;;;;5046640;28;20040;-77
2023/12/09 04:18:15;;;;;;;44.70;18.00;;;7.30;99.90;;;;;;5051236;28;20033;-77
2023/12/09 04:20:41;;;;;;;48.30;19.02;;;7.30;99.90;;;;;;5053267;28;20116;-77
2023/12/09 04:23:07;;;;;;;50.88;18.13;;;7.40;99.90;;;;;;5050655;28;20513;-76
2023/12/09 04:25:32;;;;;;;58.22;19.02;;;7.50;99.90;;;;;;5049660;28;20488;-76
2023/12/09 04:27:58;;;;;;;48.70;18.73;;;7.70;99.90;;;;;;5050600;28;20124;-77
2023/12/09 04:30:24;;;;;;;51.70;17.92;;;7.20;99.90;;;;;;5046333;28;20488;-77
2023/12/09 04:32:49;;;;;;;42.55;18.38;;;7.50;99.90;;;;;;5052550;28;20036;-77
2023/12/09 04:35:15;;;;;;;53.70;17.98;;;7.20;99.90;;;;;;5028625;28;20034;-76
2023/12/09 04:37:41;;;;;;;40.47;16.33;;;7.30;99.90;;;;;;5027508;28;20029;-77
2023/12/09 04:40:13;;;;;;;41.65;16.52;;;7.20;99.90;;;;;;5045743;28;20037;-76
2023/12/09 04:42:39;;;;;;;50.40;16.58;;;7.30;99.90;;;;;;5051544;28;20052;-75
2023/12/09 04:45:06;;;;;;;40.83;17.08;;;7.20;99.90;;;;;;5051965;28;20143;-76
2023/12/09 04:47:36;;;;;;;53.92;16.98;;;7.20;99.90;;;;;;5046650;28;20043;-77
2023/12/09 04:50:04;;;;;;;34.17;16.77;;;7.20;99.90;;;;;;5055804;28;20044;-77
2023/12/09 04:52:30;;;;;;;40.22;16.55;;;7.30;99.90;;;;;;5051466;28;20080;-77
2023/12/09 04:54:56;;;;;;;38.67;15.43;;;7.70;99.90;;;;;;5051707;28;20119;-77
2023/12/09 04:57:22;;;;;;;37.38;15.20;;;7.20;99.90;;;;;;5041665;28;20083;-77
2023/12/09 04:59:48;;;;;;;40.53;15.30;;;7.20;99.90;;;;;;5060470;28;20115;-77
2023/12/09 05:02:14;;;;;;;46.47;15.40;;;7.30;99.90;;;;;;5054321;28;20511;-77
2023/12/09 05:04:39;;;;;;;49.20;16.42;;;7.30;99.90;;;;;;5054885;28;20083;-77
2023/12/09 05:07:05;;;;;;;46.17;15.57;;;7.60;99.90;;;;;;5057750;28;20040;-77
2023/12/09 05:09:31;;;;;;;37.13;14.20;;;7.40;99.90;;;;;;5050436;28;20064;-77
2023/12/09 05:11:56;;;;;;;43.88;15.45;;;7.20;99.90;;;;;;5056633;28;20051;-78
2023/12/09 05:14:22;;;;;;;44.88;15.50;;;7.20;99.90;;;;;;5055222;28;20061;-77
2023/12/09 05:16:47;;;;;;;39.70;14.27;;;7.20;99.90;;;;;;5056206;28;20033;-76
2023/12/09 05:19:13;;;;;;;33.80;13.75;;;7.80;99.90;;;;;;5056328;28;20044;-76
2023/12/09 05:21:38;;;;;;;34.63;14.13;;;7.20;99.90;;;;;;5052736;28;20032;-78
2023/12/09 05:24:04;;;;;;;40.92;14.38;;;7.20;99.90;;;;;;5058484;28;20033;-77
2023/12/09 05:26:31;;;;;;;38.40;14.00;;;7.20;99.90;;;;;;5050209;28;20488;-77
2023/12/09 05:28:57;;;;;;;38.50;13.57;;;7.60;99.90;;;;;;5055205;28;20036;-77
2023/12/09 05:31:23;;;;;;;40.47;13.50;;;7.60;99.90;;;;;;5051359;28;20051;-77
2023/12/09 05:33:49;;;;;;;41.85;14.43;;;8.00;99.90;;;;;;5049510;28;20056;-76
2023/12/09 05:36:15;;;;;;;33.72;12.80;;;7.70;99.90;;;;;;5052714;28;20041;-78
2023/12/09 05:38:41;;;;;;;36.08;14.25;;;7.30;99.90;;;;;;5056594;28;20064;-78
2023/12/09 05:41:08;;;;;;;43.50;12.65;;;7.20;99.90;;;;;;5058552;28;20455;-76
2023/12/09 05:43:36;;;;;;;35.85;13.38;;;7.20;99.90;;;;;;5060533;28;20631;-77
2023/12/09 05:46:02;;;;;;;27.77;12.55;;;7.20;99.90;;;;;;5058153;28;20097;-76
2023/12/09 05:48:28;;;;;;;34.40;13.77;;;7.20;99.90;;;;;;5052970;28;20044;-77
2023/12/09 05:50:54;;;;;;;39.67;14.25;;;7.20;99.90;;;;;;5058563;28;20056;-76
2023/12/09 05:53:21;;;;;;;44.05;13.05;;;7.20;99.90;;;;;;5058958;28;20452;-77
2023/12/09 05:55:47;;;;;;;38.25;12.90;;;7.50;99.90;;;;;;5057781;28;20083;-77
2023/12/09 05:58:13;;;;;;;40.90;12.90;;;7.20;99.90;;;;;;5056068;28;20025;-76
2023/12/09 06:00:39;;;;;;;39.88;14.07;;;7.20;99.90;;;;;;5054457;28;20060;-77
2023/12/09 06:03:04;;;;;;;36.58;13.40;;;7.20;99.90;;;;;;5056552;28;20040;-76
2023/12/09 06:05:30;;;;;;;37.25;14.00;;;7.50;99.90;;;;;;5057320;28;20068;-77
2023/12/09 06:07:55;;;;;;;41.83;12.85;;;7.30;99.90;;;;;;5057075;28;20043;-77
2023/12/09 06:10:21;;;;;;;33.38;12.50;;;7.20;99.90;;;;;;5053236;28;20101;-77
2023/12/09 06:12:47;;;;;;;44.55;14.85;;;7.30;99.90;;;;;;5053855;28;20033;-77
2023/12/09 06:15:12;;;;;;;36.80;14.27;;;7.60;99.90;;;;;;5054070;28;20045;-76
2023/12/09 06:17:38;;;;;;;36.88;13.57;;;7.30;99.90;;;;;;5054917;28;20125;-77
2023/12/09 06:20:08;;;;;;;32.28;13.55;;;7.20;99.90;;;;;;5037327;28;20044;-76
2023/12/09 06:22:33;;;;;;;32.42;12.88;;;7.20;99.90;;;;;;5046766;28;20090;-77
2023/12/09 06:24:59;;;;;;;38.92;12.98;;;7.60;99.90;;;;;;5086515;28;20496;-76
2023/12/09 06:27:25;;;;;;;33.40;12.57;;;7.30;99.90;;;;;;5053263;28;20393;-76
2023/12/09 06:29:51;;;;;;;33.63;13.95;;;7.20;99.90;;;;;;5055099;28;20471;-77
2023/12/09 06:32:17;;;;;;;34.25;12.65;;;7.20;99.90;;;;;;5055310;28;20040;-76
2023/12/09 06:34:43;;;;;;;36.08;12.32;;;7.20;99.90;;;;;;5040023;28;20564;-76
2023/12/09 06:37:08;;;;;;;36.80;13.40;;;7.40;99.90;;;;;;5054477;28;20041;-77
2023/12/09 06:39:34;;;;;;;36.70;12.48;;;7.20;99.90;;;;;;5052889;28;20037;-77
2023/12/09 06:42:00;;;;;;;36.58;12.43;;;7.20;99.90;;;;;;5055477;28;20037;-78
2023/12/09 06:44:26;;;;;;;33.75;11.27;;;7.30;99.90;;;;;;5056989;28;20195;-76
2023/12/09 06:46:52;;;;;;;34.60;12.10;;;7.10;99.90;;;;;;5083137;28;20130;-77
2023/12/09 06:49:18;;;;;;;30.90;12.00;;;7.10;99.90;;;;;;5088557;28;20040;-77
2023/12/09 06:51:45;;;;;;;35.25;14.15;;;7.10;99.90;;;;;;5026741;28;20120;-78
2023/12/09 06:54:11;;;;;;;37.83;12.82;;;7.50;99.90;;;;;;5044710;28;20063;-77
2023/12/09 06:56:37;;;;;;;32.97;12.77;;;7.10;99.90;;;;;;5078726;28;20120;-77
2023/12/09 06:59:02;;;;;;;28.30;11.27;;;7.10;99.90;;;;;;5055800;28;20064;-76
2023/12/09 07:01:28;;;;;;;34.33;11.75;;;7.40;99.90;;;;;;5046054;28;20044;-76
2023/12/09 07:03:54;;;;;;;37.10;12.80;;;7.40;99.90;;;;;;5034879;28;20037;-77
2023/12/09 07:06:21;;;;;;;28.50;11.98;;;7.00;99.90;;;;;;5036635;28;20052;-76
2023/12/09 07:08:47;;;;;;;35.38;12.85;;;7.00;99.90;;;;;;5031002;28;20032;-76
2023/12/09 07:11:13;;;;;;;33.72;12.85;;;7.10;99.90;;;;;;5048659;28;20175;-75
2023/12/09 07:13:39;;;;;;;29.67;12.35;;;7.40;99.90;;;;;;5054229;28;20060;-77
2023/12/09 07:16:08;;;;;;;29.83;11.80;;;7.50;99.90;;;;;;5051836;28;20041;-77
2023/12/09 07:18:33;;;;;;;32.00;11.85;;;7.00;99.90;;;;;;5050231;28;20525;-76
2023/12/09 07:20:59;;;;;;;27.73;11.38;;;7.00;99.90;;;;;;5051592;28;20033;-77
2023/12/09 07:23:25;;;;;;;29.50;12.25;;;7.30;99.90;;;;;;5048455;28;20032;-77
2023/12/09 07:25:51;;;;;;;29.92;12.30;;;7.00;99.90;;;;;;5052823;28;20041;-76
2023/12/09 07:28:16;;;;;;;37.78;13.02;;;7.00;99.90;;;;;;5051987;28;20043;-77
2023/12/09 07:30:42;;;;;;;28.25;11.57;;;7.00;99.90;;;;;;5054297;28;20037;-77
2023/12/09 07:33:07;;;;;;;31.85;11.50;;;7.00;99.90;;;;;;5049667;28;20049;-76
2023/12/09 07:35:33;;;;;;;34.72;12.45;;;7.10;99.90;;;;;;5053762;28;20104;-77
2023/12/09 07:37:59;;;;;;;29.23;11.93;;;6.90;99.90;;;;;;5050841;28;20049;-77
2023/12/09 07:40:24;;;;;;;29.17;12.23;;;6.90;99.90;;;;;;5067441;28;20041;-77
2023/12/09 07:42:50;;;;;;;27.58;11.40;;;6.90;99.90;;;;;;5053360;28;20037;-76
2023/12/09 07:45:15;;;;;;;32.50;10.80;;;7.70;99.90;;;;;;5057286;28;20045;-77
2023/12/09 07:47:41;;;;;;;27.33;10.38;;;6.90;99.90;;;;;;5049214;28;20047;-77
2023/12/09 07:50:07;;;;;;;27.10;11.05;;;6.90;99.90;;;;;;5055506;28;20044;-77
2023/12/09 07:52:32;;;;;;;33.25;12.30;;;6.90;99.90;;;;;;5057689;28;20416;-77
2023/12/09 07:54:58;;;;;;;32.30;10.40;;;6.80;99.90;;;;;;5054523;28;20037;-77
2023/12/09 07:57:24;;;;;;;34.30;11.80;;;6.90;99.90;;;;;;5055773;28;20071;-78
2023/12/09 07:59:49;;;;;;;29.30;10.30;;;7.60;99.90;;;;;;5089455;28;20033;-77
2023/12/09 08:02:15;;;;;;;26.52;10.30;;;7.20;99.90;;;;;;5054137;28;20033;-77
2023/12/09 08:04:40;;;;;;;24.48;9.55;;;7.00;99.90;;;;;;5055488;28;20037;-77
2023/12/09 08:07:06;;;;;;;28.45;10.15;;;6.80;99.90;;;;;;5056314;28;20052;-78
2023/12/09 08:09:31;;;;;;;31.00;11.77;;;6.80;99.90;;;;;;5040445;28;20072;-77
2023/12/09 08:11:57;;;;;;;28.25;9.63;;;6.80;99.90;;;;;;5057725;28;20466;-77
2023/12/09 08:14:23;;;;;;;27.40;11.57;;;6.80;99.90;;;;;;5059232;28;20377;-77
2023/12/09 08:16:48;;;;;;;30.45;12.25;;;7.00;99.90;;;;;;5036527;28;20065;-76
2023/12/09 08:19:14;;;;;;;26.05;10.32;;;6.80;99.90;;;;;;5056127;28;20048;-78
2023/12/09 08:21:40;;;;;;;27.92;10.02;;;6.80;99.90;;;;;;5057753;28;20040;-77
2023/12/09 08:24:06;;;;;;;29.40;10.50;;;6.80;99.90;;;;;;5061018;28;20447;-77
2023/12/09 08:26:32;;;;;;;27.30;10.32;;;6.80;99.90;;;;;;5061316;28;20061;-78
2023/12/09 08:28:58;;;;;;;32.10;10.25;;;7.50;99.90;;;;;;5072542;28;20102;-78
2023/12/09 08:31:23;;;;;;;29.38;10.18;;;6.80;99.90;;;;;;5068906;28;20044;-77
2023/12/09 08:33:49;;;;;;;27.52;10.68;;;7.50;99.90;;;;;;5070471;28;20029;-76
2023/12/09 08:36:15;;;;;;;27.38;9.20;;;7.70;99.90;;;;;;5068893;28;20048;-76
2023/12/09 08:38:40;;;;;;;29.35;9.95;;;7.30;99.90;;;;;;5067313;28;20484;-78
2023/12/09 08:41:06;;;;;;;28.83;9.48;;;7.10;99.90;;;;;;5068723;28;20079;-78
2023/12/09 08:43:32;;;;;;;25.77;9.02;;;7.40;99.90;;;;;;5066488;28;20033;-77
2023/12/09 08:45:57;;;;;;;29.25;9.50;;;7.20;99.90;;;;;;5063730;28;20072;-76
2023/12/09 08:48:24;;;;;;;28.73;10.07;;;7.50;99.90;;;;;;5066504;28;20040;-76
2023/12/09 08:50:49;;;;;;;29.15;9.82;;;7.20;99.90;;;;;;5069627;28;20100;-77
2023/12/09 08:53:15;;;;;;;25.38;9.00;;;7.30;99.90;;;;;;5071283;28;20052;-78
2023/12/09 08:55:41;;;;;;;17.90;7.78;;;7.50;99.90;;;;;;5070267;28;20041;-78
2023/12/09 08:58:07;;;;;;;18.58;8.05;;;7.30;99.90;;;;;;5072024;28;20048;-79
2023/12/09 09:00:33;;;;;;;19.02;7.43;;;7.50;99.90;;;;;;5070621;28;20040;-78
2023/12/09 09:02:58;;;;;;;22.45;7.35;;;7.70;99.90;;;;;;5053917;28;20033;-78
2023/12/09 09:05:24;;;;;;;23.95;8.00;;;7.60;99.90;;;;;;5083340;28;20045;-78
2023/12/09 09:07:50;;;;;;;30.23;8.32;;;7.50;99.90;;;;;;5068687;28;20043;-77
2023/12/09 09:10:18;;;;;;;21.73;8.65;;;7.50;99.90;;;;;;5085738;28;20053;-78
2023/12/09 09:12:44;;;;;;;24.95;7.38;;;7.00;99.90;;;;;;5061956;28;20105;-77
2023/12/09 09:15:10;;;;;;;19.85;7.07;;;7.00;99.90;;;;;;5062912;28;20060;-76
2023/12/09 09:17:35;;;;;;;19.77;7.22;;;7.00;99.90;;;;;;5062787;28;20043;-78
2023/12/09 09:20:01;;;;;;;24.40;7.82;;;7.70;99.90;;;;;;5064794;28;20033;-77
2023/12/09 09:22:27;;;;;;;18.13;7.03;;;6.90;99.90;;;;;;5066764;28;20064;-78
2023/12/09 09:24:52;;;;;;;20.05;5.88;;;7.00;99.90;;;;;;5060851;28;20044;-77
2023/12/09 09:27:18;;;;;;;21.08;6.53;;;7.10;99.90;;;;;;5055051;28;20037;-77
2023/12/09 09:29:45;;;;;;;18.15;6.28;;;6.90;99.90;;;;;;5056077;28;20151;-77
2023/12/09 09:32:11;;;;;;;21.38;5.95;;;7.80;99.90;;;;;;5059854;28;20068;-77
2023/12/09 09:34:36;;;;;;;17.60;6.38;;;7.40;99.90;;;;;;5062897;28;20041;-77
2023/12/09 09:37:02;;;;;;;16.20;5.53;;;7.20;99.90;;;;;;5059242;28;20048;-76
2023/12/09 09:39:27;;;;;;;20.35;5.60;;;7.10;99.90;;;;;;5064035;28;20398;-77
2023/12/09 09:42:02;;;;;;;20.48;6.38;;;7.10;99.90;;;;;;5062156;28;20102;-77
2023/12/09 09:44:32;;;;;;;21.17;6.03;;;7.10;99.90;;;;;;5042692;28;20037;-77
2023/12/09 09:47:00;;;;;;;22.52;5.97;;;7.10;99.90;;;;;;5061393;28;20049;-78
2023/12/09 09:49:29;;;;;;;15.50;5.20;;;7.10;99.90;;;;;;5060751;28;20424;-78
2023/12/09 09:51:58;;;;;;;16.08;5.35;;;7.60;99.90;;;;;;5057571;28;20052;-77
2023/12/09 09:54:28;;;;;;;19.02;5.43;;;7.10;99.90;;;;;;5072004;28;20424;-77
2023/12/09 09:56:58;;;;;;;13.63;4.85;;;7.60;99.90;;;;;;5072431;28;20101;-76
2023/12/09 09:59:24;;;;;;;21.73;5.78;;;7.70;99.90;;;;;;5057908;28;20118;-77
2023/12/09 10:01:49;;;;;;;16.25;5.22;;;7.20;99.90;;;;;;5056672;28;20071;-76
2023/12/09 10:04:16;;;;;;;19.17;4.88;;;7.20;99.90;;;;;;5061536;28;20032;-77
2023/12/09 10:06:43;;;;;;;19.13;5.28;;;7.10;99.90;;;;;;5063649;28;20072;-76
2023/12/09 10:09:08;;;;;;;18.08;4.70;;;7.80;99.90;;;;;;5076528;28;20062;-76
2023/12/09 10:11:34;;;;;;;13.43;4.88;;;7.20;99.90;;;;;;5060402;28;20063;-76
2023/12/09 10:13:59;;;;;;;17.85;5.18;;;7.20;99.90;;;;;;5043013;28;20033;-77
2023/12/09 10:16:25;;;;;;;18.38;5.18;;;7.90;99.90;;;;;;5058356;28;20052;-77
2023/12/09 10:18:52;;;;;;;13.60;5.13;;;7.20;99.90;;;;;;5061346;28;20063;-76
2023/12/09 10:21:17;;;;;;;19.05;5.25;;;7.50;99.90;;;;;;5060477;28;20124;-77
2023/12/09 10:23:45;;;;;;;13.25;4.35;;;7.70;99.90;;;;;;5061873;28;20048;-77
2023/12/09 10:26:11;;;;;;;15.13;4.40;;;7.20;99.90;;;;;;5043469;28;20544;-78
2023/12/09 10:28:37;;;;;;;19.45;4.82;;;7.90;99.90;;;;;;5061732;28;20039;-76
2023/12/09 10:31:03;;;;;;;15.68;4.10;;;7.90;99.90;;;;;;5060280;28;20493;-77
2023/12/09 10:33:35;;;;;;;18.65;4.22;;;7.30;99.90;;;;;;5063852;28;20460;-78
2023/12/09 10:36:01;;;;;;;13.85;4.53;;;7.40;99.90;;;;;;5063638;28;20115;-77
2023/12/09 10:38:28;;;;;;;12.43;4.38;;;7.40;99.90;;;;;;5041733;28;20094;-76
2023/12/09 10:40:53;;;;;;;16.63;4.03;;;7.40;99.90;;;;;;5048739;28;20064;-76
2023/12/09 10:43:20;;;;;;;9.57;3.13;;;7.90;99.90;;;;;;5064916;28;20037;-78
2023/12/09 10:45:46;;;;;;;13.02;3.80;;;7.50;99.90;;;;;;5060595;28;20400;-78
2023/12/09 10:48:11;;;;;;;11.23;3.55;;;7.80;99.90;;;;;;5061342;28;20040;-76
2023/12/09 10:50:40;;;;;;;17.80;4.40;;;7.60;99.90;;;;;;5065240;28;20037;-78
2023/12/09 10:53:05;;;;;;;15.00;3.50;;;7.60;99.90;;;;;;5062997;28;20037;-77
2023/12/09 10:55:32;;;;;;;14.70;4.10;;;7.90;99.90;;;;;;5065701;28;20033;-79
2023/12/09 10:57:59;;;;;;;9.40;3.35;;;8.40;99.90;;;;;;5067857;28;20542;-79
2023/12/09 11:00:25;;;;;;;17.05;4.40;;;7.90;99.90;;;;;;5053600;28;20041;-77
2023/12/09 11:02:55;;;;;;;12.75;3.17;;;8.10;99.90;;;;;;5079158;28;20034;-76
2023/12/09 11:05:21;;;;;;;12.20;3.35;;;7.70;99.90;;;;;;5059349;28;20420;-77
2023/12/09 11:07:48;;;;;;;10.13;3.33;;;7.70;99.90;;;;;;5055796;28;20482;-77
2023/12/09 11:10:15;;;;;;;13.35;3.00;;;7.80;99.90;;;;;;5052868;28;20041;-75
2023/12/09 11:12:46;;;;;;;14.27;3.63;;;8.00;99.90;;;;;;5053805;28;20076;-77
2023/12/09 11:15:13;;;;;;;12.45;3.38;;;7.70;99.90;;;;;;5054962;28;20056;-76
2023/12/09 11:17:49;;;;;;;10.80;3.10;;;8.00;99.90;;;;;;5061734;28;20083;-77
2023/12/09 11:20:18;;;;;;;10.57;2.88;;;7.70;99.90;;;;;;5062013;28;20112;-78
2023/12/09 11:22:45;;;;;;;8.45;2.67;;;8.00;99.90;;;;;;5060081;28;20048;-77
2023/12/09 11:25:21;;;;;;;6.93;2.40;;;7.80;99.90;;;;;;5051232;28;20099;-77
2023/12/09 11:27:51;;;;;;;10.45;2.72;;;7.60;99.90;;;;;;5054051;28;20410;-77
2023/12/09 11:30:44;;;;;;;10.82;2.80;;;7.80;99.90;;;;;;5046405;28;20091;-77
2023/12/09 11:33:10;;;;;;;11.88;3.47;;;7.60;99.90;;;;;;5059519;28;20037;-78
2023/12/09 11:35:37;;;;;;;8.63;2.90;;;7.90;99.90;;;;;;5051605;28;20048;-77
2023/12/09 11:38:05;;;;;;;7.35;2.35;;;7.60;99.90;;;;;;5054606;28;20056;-77
2023/12/09 11:40:32;;;;;;;10.43;2.95;;;7.60;99.90;;;;;;5052375;28;20057;-76
2023/12/09 11:42:59;;;;;;;12.15;2.85;;;7.70;99.90;;;;;;5056570;28;20060;-77
2023/12/09 11:45:27;;;;;;;9.98;2.80;;;7.80;99.90;;;;;;5046829;28;20531;-76
2023/12/09 11:47:53;;;;;;;9.40;2.75;;;7.80;99.90;;;;;;5084563;28;20044;-76
2023/12/09 11:50:19;;;;;;;14.30;3.60;;;8.20;99.90;;;;;;5054215;28;20110;-79
2023/12/09 11:52:46;;;;;;;12.77;2.88;;;8.00;99.90;;;;;;5054052;28;20041;-78
2023/12/09 11:55:14;;;;;;;11.25;2.90;;;8.20;99.90;;;;;;5053253;28;20043;-78
2023/12/09 11:57:40;;;;;;;12.50;2.50;;;8.30;99.90;;;;;;5060326;28;20041;-78
2023/12/09 12:00:09;;;;;;;8.43;2.90;;;7.90;99.90;;;;;;5052226;28;20415;-78
2023/12/09 12:02:35;;;;;;;13.40;2.95;;;7.80;99.90;;;;;;5054546;28;20037;-77
2023/12/09 12:05:01;;;;;;;9.55;2.92;;;7.80;99.90;;;;;;5055618;28;20049;-77
2023/12/09 12:07:26;;;;;;;11.65;3.63;;;7.80;99.90;;;;;;5053623;28;20041;-78
2023/12/09 12:09:52;;;;;;;12.90;2.67;;;7.80;99.90;;;;;;5092425;28;20229;-80
2023/12/09 12:12:19;;;;;;;10.80;3.25;;;7.90;99.90;;;;;;5057497;28;20032;-78
2023/12/09 12:14:46;;;;;;;8.90;3.20;;;8.30;99.90;;;;;;5060566;28;20041;-78
2023/12/09 12:17:12;;;;;;;7.45;2.92;;;7.80;99.90;;;;;;5043103;28;20040;-77
2023/12/09 12:19:39;;;;;;;11.32;2.85;;;7.80;99.90;;;;;;5057836;28;20556;-78
2023/12/09 12:22:05;;;;;;;10.07;2.80;;;8.00;99.90;;;;;;5041167;28;20405;-78
2023/12/09 12:24:53;;;;;;;10.80;2.88;;;8.00;99.90;;;;;;5052279;28;20033;-77
2023/12/09 12:27:18;;;;;;;8.60;3.33;;;7.80;99.90;;;;;;5059586;28;20048;-78
2023/12/09 12:29:44;;;;;;;8.55;3.33;;;8.00;99.90;;;;;;5043509;28;20033;-78
2023/12/09 12:32:15;;;;;;;8.73;3.13;;;7.80;99.90;;;;;;5055539;28;20041;-77
2023/12/09 12:34:47;;;;;;;8.98;3.17;;;7.70;99.90;;;;;;5055962;28;20150;-78
2023/12/09 12:37:13;;;;;;;9.30;2.70;;;7.80;99.90;;;;;;5058873;28;20076;-78